Time;durP1;ratioP1;P1;durP2;ratioP2;P2;SDS_P1;SDS_P2;PMS_P1;PMS_P2;Temp;Humidity;BMP_temperature;BMP_pressure;BME280_temperature;BME280_humidity;BME280_pressure;Samples;Min_cycle;Max_cycle;Signal;HPM_P1;HPM_P2
2023/08/02 00:02:15;;;;;;;5.20;2.35;;;;;;;;;;5027030;28;20509;-69
2023/08/02 00:04:41;;;;;;;4.60;2.38;;;;;;;;;;5015166;28;20042;-69
2023/08/02 00:07:07;;;;;;;3.92;1.98;;;;;;;;;;5007816;28;20034;-69
2023/08/02 00:09:32;;;;;;;3.35;1.90;;;;;;;;;;5006879;28;20439;-69
2023/08/02 00:11:58;;;;;;;3.25;1.70;;;;;;;;;;5007112;28;20037;-69
2023/08/02 00:14:24;;;;;;;3.60;1.80;;;;;;;;;;5007206;28;20034;-69
2023/08/02 00:16:49;;;;;;;3.95;2.13;;;;;;;;;;5007445;28;20033;-69
2023/08/02 00:19:15;;;;;;;3.97;1.90;;;;;;;;;;5006694;28;20532;-69
2023/08/02 00:21:41;;;;;;;3.22;1.80;;;;;;;;;;5019203;28;20129;-69
2023/08/02 00:24:07;;;;;;;3.55;1.90;;;;;;;;;;5025262;28;20406;-69
2023/08/02 00:26:32;;;;;;;3.67;2.05;;;;;;;;;;5026536;28;20586;-69
2023/08/02 00:28:57;;;;;;;6.57;2.20;;;;;;;;;;5026699;28;20045;-69
2023/08/02 00:31:23;;;;;;;3.15;1.92;;;;;;;;;;5026537;28;20120;-69
2023/08/02 00:33:48;;;;;;;3.35;2.28;;;;;;;;;;5026829;28;20036;-69
2023/08/02 00:36:14;;;;;;;5.88;1.80;;;;;;;;;;5026896;28;20765;-69
2023/08/02 00:38:39;;;;;;;2.83;1.92;;;;;;;;;;5029860;28;20375;-69
2023/08/02 00:41:21;;;;;;;5.65;2.40;;;;;;;;;;5033916;28;20473;-69
2023/08/02 00:43:47;;;;;;;4.45;2.55;;;;;;;;;;5029286;28;20034;-69
2023/08/02 00:46:15;;;;;;;4.55;1.90;;;;;;;;;;5025001;28;20055;-69
2023/08/02 00:48:41;;;;;;;4.40;2.17;;;;;;;;;;5019152;28;20084;-69
2023/08/02 00:51:12;;;;;;;5.47;2.47;;;;;;;;;;5026496;28;20033;-70
2023/08/02 00:53:37;;;;;;;4.80;2.30;;;;;;;;;;5035834;28;20038;-70
2023/08/02 00:56:03;;;;;;;5.40;2.20;;;;;;;;;;5026250;28;20044;-69
2023/08/02 00:58:28;;;;;;;5.60;2.45;;;;;;;;;;5026057;28;20033;-69
2023/08/02 01:00:53;;;;;;;5.80;2.40;;;;;;;;;;5010458;28;20072;-69
2023/08/02 01:03:19;;;;;;;5.30;2.67;;;;;;;;;;5025767;28;20109;-69
2023/08/02 01:05:55;;;;;;;3.22;2.25;;;;;;;;;;5008144;28;20057;-70
2023/08/02 01:08:33;;;;;;;4.28;2.22;;;;;;;;;;5025451;28;20029;-70
2023/08/02 01:11:13;;;;;;;5.10;3.10;;;;;;;;;;5045360;28;20102;-70
2023/08/02 01:13:45;;;;;;;6.05;2.65;;;;;;;;;;5045743;28;20041;-70
2023/08/02 01:16:11;;;;;;;6.05;2.42;;;;;;;;;;5045138;28;20043;-70
2023/08/02 01:18:37;;;;;;;6.88;2.55;;;;;;;;;;5024561;28;20034;-69
2023/08/02 01:21:02;;;;;;;6.63;2.47;;;;;;;;;;5025397;28;20498;-69
2023/08/02 01:23:28;;;;;;;4.05;2.63;;;;;;;;;;5043754;28;20495;-70
2023/08/02 01:25:57;;;;;;;4.72;2.33;;;;;;;;;;5031425;28;20061;-70
2023/08/02 01:28:25;;;;;;;4.00;2.40;;;;;;;;;;5025296;28;20056;-70
2023/08/02 01:30:52;;;;;;;4.22;2.40;;;;;;;;;;5025592;28;20107;-69
2023/08/02 01:33:17;;;;;;;5.65;2.70;;;;;;;;;;5025501;28;20036;-69
2023/08/02 01:35:43;;;;;;;7.53;2.90;;;;;;;;;;5025919;28;20025;-70
2023/08/02 01:38:08;;;;;;;4.10;2.40;;;;;;;;;;5007489;28;20038;-70
2023/08/02 01:40:34;;;;;;;10.13;2.97;;;;;;;;;;5025103;28;20040;-70
2023/08/02 01:42:59;;;;;;;4.45;3.00;;;;;;;;;;5024822;28;20045;-70
2023/08/02 01:45:24;;;;;;;7.90;2.55;;;;;;;;;;5025280;28;20132;-70
2023/08/02 01:47:51;;;;;;;6.38;2.90;;;;;;;;;;5025545;28;20082;-70
2023/08/02 01:50:17;;;;;;;6.43;2.72;;;;;;;;;;5042532;28;20417;-70
2023/08/02 01:52:42;;;;;;;6.65;3.10;;;;;;;;;;5044448;28;20513;-70
2023/08/02 01:55:08;;;;;;;6.75;3.00;;;;;;;;;;5036889;28;20045;-70
2023/08/02 01:57:33;;;;;;;5.55;3.30;;;;;;;;;;5025617;28;20025;-69
2023/08/02 01:59:59;;;;;;;5.88;3.10;;;;;;;;;;5025824;28;20037;-70
2023/08/02 02:02:24;;;;;;;4.50;2.20;;;;;;;;;;5046273;28;20029;-70
2023/08/02 02:04:50;;;;;;;4.57;2.67;;;;;;;;;;5052863;28;20036;-70
2023/08/02 02:07:16;;;;;;;4.00;2.80;;;;;;;;;;5031182;28;20037;-70
2023/08/02 02:09:42;;;;;;;7.93;3.28;;;;;;;;;;5044176;28;20036;-70
2023/08/02 02:12:07;;;;;;;8.38;3.10;;;;;;;;;;5045446;28;20036;-70
2023/08/02 02:14:33;;;;;;;5.95;2.60;;;;;;;;;;5044569;28;20028;-69
2023/08/02 02:16:58;;;;;;;5.35;2.70;;;;;;;;;;5044432;28;20114;-70
2023/08/02 02:19:23;;;;;;;4.78;2.75;;;;;;;;;;5026925;28;20410;-70
2023/08/02 02:21:49;;;;;;;5.35;3.00;;;;;;;;;;5021993;28;20037;-69
2023/08/02 02:24:14;;;;;;;5.50;2.70;;;;;;;;;;5024913;28;20033;-69
2023/08/02 02:26:39;;;;;;;5.18;2.63;;;;;;;;;;5045297;28;20029;-69
2023/08/02 02:29:05;;;;;;;5.30;2.63;;;;;;;;;;5028226;28;20091;-69
2023/08/02 02:31:30;;;;;;;6.15;2.95;;;;;;;;;;5025176;28;20533;-69
2023/08/02 02:33:55;;;;;;;5.95;2.90;;;;;;;;;;5024003;28;20037;-69
2023/08/02 02:36:21;;;;;;;4.88;2.50;;;;;;;;;;5025012;28;20109;-69
2023/08/02 02:38:46;;;;;;;4.05;2.45;;;;;;;;;;5025206;28;20446;-69
2023/08/02 02:41:11;;;;;;;5.80;2.58;;;;;;;;;;5024679;28;20086;-69
2023/08/02 02:43:37;;;;;;;4.75;2.50;;;;;;;;;;5024267;28;20083;-69
2023/08/02 02:46:02;;;;;;;4.97;2.65;;;;;;;;;;5022905;28;20045;-69
2023/08/02 02:48:28;;;;;;;7.75;3.13;;;;;;;;;;5024598;28;20108;-69
2023/08/02 02:50:53;;;;;;;5.32;2.97;;;;;;;;;;5024251;28;20513;-69
2023/08/02 02:53:20;;;;;;;9.02;3.00;;;;;;;;;;5024759;28;20124;-69
2023/08/02 02:55:46;;;;;;;7.88;3.13;;;;;;;;;;5024284;28;20164;-70
2023/08/02 02:58:11;;;;;;;6.00;2.90;;;;;;;;;;5024389;28;20200;-69
2023/08/02 03:00:36;;;;;;;4.93;2.88;;;;;;;;;;5025161;28;20029;-69
2023/08/02 03:03:02;;;;;;;6.60;2.85;;;;;;;;;;5025806;28;20136;-69
2023/08/02 03:05:27;;;;;;;5.82;3.05;;;;;;;;;;5026594;28;20258;-69
2023/08/02 03:07:53;;;;;;;5.93;2.78;;;;;;;;;;5026848;28;20063;-69
2023/08/02 03:10:18;;;;;;;5.25;3.13;;;;;;;;;;5028163;28;20057;-69
2023/08/02 03:12:43;;;;;;;5.95;2.97;;;;;;;;;;5027954;28;20061;-69
2023/08/02 03:15:09;;;;;;;7.30;2.88;;;;;;;;;;5028560;28;20622;-69
2023/08/02 03:17:34;;;;;;;5.38;3.25;;;;;;;;;;5028317;28;20033;-69
2023/08/02 03:20:00;;;;;;;5.05;2.80;;;;;;;;;;5027922;28;20636;-69
2023/08/02 03:22:25;;;;;;;6.15;2.80;;;;;;;;;;5028180;28;20390;-69
2023/08/02 03:24:50;;;;;;;4.78;2.72;;;;;;;;;;5028318;28;20686;-69
2023/08/02 03:27:16;;;;;;;4.38;2.78;;;;;;;;;;5030748;28;20025;-69
2023/08/02 03:29:41;;;;;;;3.90;2.38;;;;;;;;;;5036667;28;20042;-68
2023/08/02 03:32:07;;;;;;;3.75;2.22;;;;;;;;;;5031117;28;20041;-69
2023/08/02 03:34:32;;;;;;;6.20;2.70;;;;;;;;;;5028783;28;20037;-69
2023/08/02 03:36:58;;;;;;;7.10;2.05;;;;;;;;;;5028017;28;20042;-69
2023/08/02 03:39:27;;;;;;;5.32;2.45;;;;;;;;;;5027638;28;20562;-69
2023/08/02 03:41:53;;;;;;;3.15;1.75;;;;;;;;;;5028349;28;20436;-69
2023/08/02 03:44:19;;;;;;;4.85;2.10;;;;;;;;;;5027189;28;20084;-69
2023/08/02 03:46:44;;;;;;;4.57;2.38;;;;;;;;;;5027452;28;20518;-69
2023/08/02 03:49:09;;;;;;;3.55;1.90;;;;;;;;;;5027953;28;20069;-69
2023/08/02 03:51:35;;;;;;;5.15;2.63;;;;;;;;;;5025645;28;20084;-69
2023/08/02 03:54:03;;;;;;;5.75;2.53;;;;;;;;;;5015253;28;20079;-69
2023/08/02 03:56:29;;;;;;;4.03;1.92;;;;;;;;;;5007675;28;20038;-68
2023/08/02 03:58:54;;;;;;;4.75;2.47;;;;;;;;;;5039856;28;20040;-69
2023/08/02 04:01:19;;;;;;;3.55;2.17;;;;;;;;;;5056611;28;20029;-69
2023/08/02 04:03:45;;;;;;;2.80;1.90;;;;;;;;;;5065312;28;20059;-69
2023/08/02 04:06:10;;;;;;;2.78;1.58;;;;;;;;;;5058743;28;20533;-69
2023/08/02 04:08:35;;;;;;;6.18;2.10;;;;;;;;;;5067395;28;20674;-69
2023/08/02 04:11:04;;;;;;;3.08;1.67;;;;;;;;;;5066138;28;20657;-69
2023/08/02 04:13:30;;;;;;;3.22;1.50;;;;;;;;;;5063467;28;20044;-69
2023/08/02 04:15:56;;;;;;;2.80;1.42;;;;;;;;;;5061054;28;20041;-69
2023/08/02 04:18:21;;;;;;;2.65;1.45;;;;;;;;;;5046116;28;20485;-69
2023/08/02 04:20:46;;;;;;;2.80;1.60;;;;;;;;;;5047158;28;20466;-69
2023/08/02 04:23:12;;;;;;;2.25;1.48;;;;;;;;;;5046769;28;20060;-69
2023/08/02 04:25:37;;;;;;;2.10;1.27;;;;;;;;;;5046684;28;20053;-69
2023/08/02 04:28:03;;;;;;;1.98;1.38;;;;;;;;;;5046657;28;20048;-69
2023/08/02 04:30:28;;;;;;;1.23;0.88;;;;;;;;;;5045956;28;20037;-69
2023/08/02 04:32:55;;;;;;;1.83;1.30;;;;;;;;;;5059561;28;20028;-69
2023/08/02 04:35:20;;;;;;;1.45;0.90;;;;;;;;;;5065181;28;20062;-69
2023/08/02 04:37:46;;;;;;;1.42;1.00;;;;;;;;;;5066609;28;20075;-69
2023/08/02 04:40:11;;;;;;;1.65;1.10;;;;;;;;;;5056085;28;20042;-69
2023/08/02 04:42:37;;;;;;;1.77;1.05;;;;;;;;;;5025314;28;20687;-69
2023/08/02 04:45:03;;;;;;;1.52;1.10;;;;;;;;;;5027337;28;20456;-69
2023/08/02 04:47:28;;;;;;;1.38;0.80;;;;;;;;;;5025976;28;20056;-69
2023/08/02 04:49:57;;;;;;;1.30;0.90;;;;;;;;;;5026733;28;20064;-69
2023/08/02 04:52:22;;;;;;;2.22;0.98;;;;;;;;;;5030479;28;20558;-69
2023/08/02 04:54:48;;;;;;;1.08;0.77;;;;;;;;;;5053350;28;20048;-69
2023/08/02 04:57:13;;;;;;;1.02;0.70;;;;;;;;;;5047295;28;20029;-69
2023/08/02 04:59:38;;;;;;;1.33;0.85;;;;;;;;;;5066460;28;20036;-69
2023/08/02 05:02:04;;;;;;;1.30;0.80;;;;;;;;;;5053231;28;20499;-69
2023/08/02 05:04:29;;;;;;;1.20;0.90;;;;;;;;;;5045737;28;20112;-69
2023/08/02 05:06:54;;;;;;;0.95;0.70;;;;;;;;;;5057537;28;20638;-69
2023/08/02 05:09:20;;;;;;;0.70;0.70;;;;;;;;;;5055022;28;20051;-69
2023/08/02 05:11:45;;;;;;;0.50;0.50;;;;;;;;;;5046414;28;20017;-69
2023/08/02 05:14:12;;;;;;;1.00;0.70;;;;;;;;;;5045732;28;20033;-69
2023/08/02 05:16:37;;;;;;;0.50;0.50;;;;;;;;;;5045494;28;20701;-69
2023/08/02 05:19:03;;;;;;;1.17;0.60;;;;;;;;;;5045586;28;20097;-69
2023/08/02 05:21:29;;;;;;;0.70;0.60;;;;;;;;;;5045470;28;20025;-69
2023/08/02 05:23:54;;;;;;;2.63;0.60;;;;;;;;;;5045901;28;20417;-69
2023/08/02 05:26:20;;;;;;;0.77;0.63;;;;;;;;;;5045899;28;20048;-69
2023/08/02 05:28:45;;;;;;;0.60;0.50;;;;;;;;;;5045521;28;20098;-69
2023/08/02 05:31:14;;;;;;;0.60;0.60;;;;;;;;;;5045404;28;20450;-69
2023/08/02 05:33:40;;;;;;;0.40;0.40;;;;;;;;;;5044166;28;20410;-70
2023/08/02 05:36:06;;;;;;;0.70;0.50;;;;;;;;;;5031389;28;20454;-69
2023/08/02 05:38:33;;;;;;;0.25;0.22;;;;;;;;;;5037949;28;20041;-69
2023/08/02 05:41:03;;;;;;;0.38;0.38;;;;;;;;;;5044197;28;20041;-69
2023/08/02 05:43:29;;;;;;;0.32;0.32;;;;;;;;;;5043608;28;20037;-69
2023/08/02 05:45:55;;;;;;;0.50;0.40;;;;;;;;;;5044196;28;20049;-70
2023/08/02 05:48:20;;;;;;;0.50;0.50;;;;;;;;;;5044982;28;20012;-69
2023/08/02 05:50:46;;;;;;;0.30;0.30;;;;;;;;;;5045316;28;20025;-70
2023/08/02 05:53:11;;;;;;;0.30;0.30;;;;;;;;;;5038522;28;20034;-70
2023/08/02 05:55:36;;;;;;;0.32;0.32;;;;;;;;;;5031353;28;20040;-69
2023/08/02 05:58:02;;;;;;;0.13;0.13;;;;;;;;;;5042575;28;20033;-69
2023/08/02 06:00:27;;;;;;;0.30;0.30;;;;;;;;;;5047813;28;20103;-68
2023/08/02 06:02:52;;;;;;;0.75;0.40;;;;;;;;;;5042548;28;20402;-69
2023/08/02 06:05:18;;;;;;;0.30;0.30;;;;;;;;;;5045581;28;20039;-69
2023/08/02 06:07:43;;;;;;;0.30;0.30;;;;;;;;;;5042618;28;20120;-69
2023/08/02 06:10:09;;;;;;;0.30;0.30;;;;;;;;;;5044456;28;20537;-69
2023/08/02 06:12:34;;;;;;;0.30;0.30;;;;;;;;;;5044863;28;20363;-69
2023/08/02 06:14:59;;;;;;;0.63;0.40;;;;;;;;;;5046854;28;20090;-69
2023/08/02 06:17:26;;;;;;;0.30;0.30;;;;;;;;;;5051206;28;20033;-68
2023/08/02 06:19:52;;;;;;;0.30;0.30;;;;;;;;;;5051079;28;20456;-70
2023/08/02 06:22:17;;;;;;;0.30;0.30;;;;;;;;;;5044463;28;20037;-70
2023/08/02 06:24:43;;;;;;;0.35;0.35;;;;;;;;;;5044120;28;20021;-70
2023/08/02 06:27:09;;;;;;;0.40;0.40;;;;;;;;;;5043175;28;20032;-70
2023/08/02 06:29:35;;;;;;;0.30;0.30;;;;;;;;;;5043720;28;20083;-70
2023/08/02 06:32:00;;;;;;;1.40;0.40;;;;;;;;;;5044636;28;20033;-70
2023/08/02 06:34:26;;;;;;;0.50;0.50;;;;;;;;;;5043581;28;20033;-70
2023/08/02 06:36:51;;;;;;;0.32;0.32;;;;;;;;;;5044884;28;20075;-70
2023/08/02 06:39:17;;;;;;;0.80;0.30;;;;;;;;;;5046280;28;20108;-69
2023/08/02 06:41:42;;;;;;;0.40;0.40;;;;;;;;;;5049053;28;20520;-70
2023/08/02 06:44:08;;;;;;;0.40;0.40;;;;;;;;;;5048429;28;20095;-70
2023/08/02 06:46:33;;;;;;;0.88;0.50;;;;;;;;;;5046169;28;20033;-69
2023/08/02 06:48:59;;;;;;;0.40;0.40;;;;;;;;;;5049145;28;20039;-70
2023/08/02 06:51:24;;;;;;;0.60;0.40;;;;;;;;;;5059462;28;20378;-69
2023/08/02 06:53:51;;;;;;;0.75;0.60;;;;;;;;;;5057159;28;20540;-70
2023/08/02 06:56:17;;;;;;;1.58;0.70;;;;;;;;;;5042924;28;20124;-70
2023/08/02 06:58:43;;;;;;;0.65;0.50;;;;;;;;;;5046142;28;20119;-70
2023/08/02 07:01:18;;;;;;;0.63;0.50;;;;;;;;;;5046452;28;20410;-70
2023/08/02 07:03:44;;;;;;;0.50;0.50;;;;;;;;;;5048359;28;20095;-70
2023/08/02 07:06:14;;;;;;;0.70;0.70;;;;;;;;;;5050675;28;20614;-69
2023/08/02 07:08:40;;;;;;;0.60;0.50;;;;;;;;;;5057091;28;20036;-70
2023/08/02 07:11:06;;;;;;;0.40;0.40;;;;;;;;;;5026708;28;20410;-70
2023/08/02 07:13:32;;;;;;;0.50;0.50;;;;;;;;;;5028503;28;20026;-70
2023/08/02 07:15:58;;;;;;;0.50;0.50;;;;;;;;;;5027967;28;20029;-70
2023/08/02 07:18:23;;;;;;;0.50;0.50;;;;;;;;;;5027607;28;20032;-70
2023/08/02 07:20:49;;;;;;;0.40;0.40;;;;;;;;;;5028566;28;20742;-70
2023/08/02 07:23:14;;;;;;;0.50;0.50;;;;;;;;;;5034179;28;20051;-70
2023/08/02 07:25:39;;;;;;;0.80;0.43;;;;;;;;;;5068223;28;20132;-70
2023/08/02 07:28:05;;;;;;;0.55;0.55;;;;;;;;;;5067627;28;20415;-70
2023/08/02 07:30:30;;;;;;;0.52;0.52;;;;;;;;;;5067455;28;20090;-69
2023/08/02 07:32:55;;;;;;;0.65;0.52;;;;;;;;;;5069081;28;20044;-70
2023/08/02 07:35:21;;;;;;;0.63;0.63;;;;;;;;;;5044205;28;20041;-69
2023/08/02 07:37:46;;;;;;;0.70;0.52;;;;;;;;;;5049816;28;20498;-70
2023/08/02 07:40:13;;;;;;;1.58;0.70;;;;;;;;;;5047421;28;20249;-69
2023/08/02 07:42:39;;;;;;;0.80;0.70;;;;;;;;;;5054957;28;20029;-69
2023/08/02 07:45:06;;;;;;;0.63;0.63;;;;;;;;;;5050601;28;20017;-70
2023/08/02 07:47:32;;;;;;;3.40;1.90;;;;;;;;;;5046899;28;20032;-70
2023/08/02 07:49:58;;;;;;;1.85;0.77;;;;;;;;;;5045743;28;20037;-70
2023/08/02 07:52:23;;;;;;;1.92;0.70;;;;;;;;;;5062145;28;20045;-70
2023/08/02 07:54:51;;;;;;;0.60;0.60;;;;;;;;;;5047350;28;20029;-70
2023/08/02 07:57:17;;;;;;;0.82;0.80;;;;;;;;;;5047429;28;20036;-69
2023/08/02 07:59:42;;;;;;;0.70;0.70;;;;;;;;;;5045977;28;20028;-70
2023/08/02 08:02:08;;;;;;;0.82;0.75;;;;;;;;;;5047375;28;20033;-70
2023/08/02 08:04:33;;;;;;;1.60;0.90;;;;;;;;;;5045608;28;20033;-70
2023/08/02 08:06:58;;;;;;;0.82;0.80;;;;;;;;;;5047055;28;20659;-70
2023/08/02 08:09:24;;;;;;;1.08;0.70;;;;;;;;;;5044528;28;20094;-69
2023/08/02 08:11:50;;;;;;;0.70;0.68;;;;;;;;;;5042881;28;20029;-70
2023/08/02 08:14:15;;;;;;;1.67;0.88;;;;;;;;;;5040738;28;20033;-72
2023/08/02 08:16:41;;;;;;;2.42;0.70;;;;;;;;;;5046598;28;20029;-70
2023/08/02 08:19:06;;;;;;;1.23;0.73;;;;;;;;;;5046379;28;20557;-70
2023/08/02 08:21:31;;;;;;;1.10;0.80;;;;;;;;;;5043821;28;20037;-70
2023/08/02 08:23:57;;;;;;;1.20;1.10;;;;;;;;;;5038653;28;20089;-70
2023/08/02 08:26:23;;;;;;;2.05;0.82;;;;;;;;;;5039500;28;20627;-70
2023/08/02 08:28:48;;;;;;;1.02;0.90;;;;;;;;;;5041497;28;20045;-70
2023/08/02 08:31:14;;;;;;;1.10;1.00;;;;;;;;;;5048816;28;20561;-70
2023/08/02 08:33:39;;;;;;;1.10;1.00;;;;;;;;;;5046427;28;20039;-70
2023/08/02 08:36:12;;;;;;;1.42;0.88;;;;;;;;;;5033268;28;20032;-70
2023/08/02 08:38:37;;;;;;;0.90;0.90;;;;;;;;;;5041357;28;20044;-70
2023/08/02 08:41:03;;;;;;;0.80;0.80;;;;;;;;;;5046029;28;20045;-70
2023/08/02 08:43:28;;;;;;;0.70;0.70;;;;;;;;;;5053727;28;20067;-70
2023/08/02 08:45:54;;;;;;;1.35;0.80;;;;;;;;;;5046073;28;20037;-69
2023/08/02 08:48:21;;;;;;;0.77;0.70;;;;;;;;;;5045964;28;20588;-70
2023/08/02 08:50:49;;;;;;;0.75;0.75;;;;;;;;;;5046174;28;20013;-70
2023/08/02 08:53:28;;;;;;;1.83;0.73;;;;;;;;;;5044318;28;20068;-70
2023/08/02 08:55:54;;;;;;;0.88;0.80;;;;;;;;;;5044675;28;20120;-70
2023/08/02 08:58:19;;;;;;;0.80;0.80;;;;;;;;;;5045143;28;20086;-70
2023/08/02 09:00:45;;;;;;;1.48;1.00;;;;;;;;;;5045613;28;20029;-70
2023/08/02 09:03:15;;;;;;;1.20;1.10;;;;;;;;;;5047307;28;20078;-71
2023/08/02 09:05:41;;;;;;;5.13;1.05;;;;;;;;;;5052474;28;20036;-72
2023/08/02 09:08:06;;;;;;;3.28;1.05;;;;;;;;;;5056084;28;20037;-71
2023/08/02 09:10:35;;;;;;;3.92;1.15;;;;;;;;;;5046297;28;20039;-72
2023/08/02 09:13:00;;;;;;;3.22;0.98;;;;;;;;;;5046223;28;20037;-71
2023/08/02 09:15:26;;;;;;;1.48;0.98;;;;;;;;;;5043902;28;20017;-71
2023/08/02 09:17:53;;;;;;;1.15;0.98;;;;;;;;;;5046603;28;20529;-71
2023/08/02 09:20:21;;;;;;;0.60;0.50;;;;;;;;;;5046217;28;20041;-71
2023/08/02 09:22:46;;;;;;;1.52;0.80;;;;;;;;;;5045379;28;20036;-70
2023/08/02 09:25:22;;;;;;;1.50;0.95;;;;;;;;;;5045856;28;20033;-70
2023/08/02 09:27:48;;;;;;;2.35;1.00;;;;;;;;;;5044657;28;20521;-71
2023/08/02 09:30:32;;;;;;;1.63;0.77;;;;;;;;;;5044809;28;20099;-70
2023/08/02 09:33:08;;;;;;;4.45;1.20;;;;;;;;;;5044589;28;20029;-71
2023/08/02 09:35:46;;;;;;;3.08;1.00;;;;;;;;;;5045115;28;20132;-70
2023/08/02 09:38:11;;;;;;;3.15;0.90;;;;;;;;;;5045071;28;20041;-70
2023/08/02 09:40:39;;;;;;;3.50;1.63;;;;;;;;;;5045162;28;20124;-70
2023/08/02 09:43:08;;;;;;;5.68;1.45;;;;;;;;;;5044356;28;20528;-70
2023/08/02 09:45:35;;;;;;;3.10;1.23;;;;;;;;;;5045009;28;20033;-70
2023/08/02 09:48:01;;;;;;;4.32;1.42;;;;;;;;;;5045150;28;20040;-70
2023/08/02 09:50:27;;;;;;;3.25;1.60;;;;;;;;;;5043464;28;20041;-71
2023/08/02 09:52:53;;;;;;;5.80;1.60;;;;;;;;;;5045157;28;20652;-71
2023/08/02 09:55:18;;;;;;;3.65;1.33;;;;;;;;;;5044129;28;20485;-71
2023/08/02 09:57:47;;;;;;;5.03;1.50;;;;;;;;;;5044132;28;20063;-70
2023/08/02 10:00:13;;;;;;;5.30;1.42;;;;;;;;;;5044775;28;20025;-70
2023/08/02 10:02:39;;;;;;;6.60;1.30;;;;;;;;;;5044958;28;20029;-71
2023/08/02 10:05:07;;;;;;;3.50;1.60;;;;;;;;;;5044504;28;20442;-69
2023/08/02 10:07:38;;;;;;;3.72;1.50;;;;;;;;;;5044576;28;20048;-73
2023/08/02 10:10:06;;;;;;;5.43;1.40;;;;;;;;;;5043073;28;20088;-72
2023/08/02 10:12:35;;;;;;;6.20;1.50;;;;;;;;;;5041935;28;20029;-71
2023/08/02 10:15:01;;;;;;;4.10;1.33;;;;;;;;;;5044931;28;20037;-71
2023/08/02 10:17:26;;;;;;;5.22;1.95;;;;;;;;;;5044445;28;20091;-70
2023/08/02 10:19:52;;;;;;;5.25;1.73;;;;;;;;;;5044508;28;20040;-70
2023/08/02 10:22:18;;;;;;;3.78;0.93;;;;;;;;;;5038750;28;20036;-70
2023/08/02 10:24:45;;;;;;;4.10;1.20;;;;;;;;;;5041523;28;20040;-70
2023/08/02 10:27:12;;;;;;;6.45;1.35;;;;;;;;;;5051418;28;20028;-70
2023/08/02 10:29:39;;;;;;;2.95;1.45;;;;;;;;;;5071710;28;20040;-70
2023/08/02 10:32:16;;;;;;;3.58;1.23;;;;;;;;;;5069973;28;20041;-70
2023/08/02 10:34:42;;;;;;;3.75;1.15;;;;;;;;;;5064421;28;20058;-71
2023/08/02 10:37:07;;;;;;;4.18;1.30;;;;;;;;;;5063517;28;20063;-70
2023/08/02 10:39:45;;;;;;;4.95;1.30;;;;;;;;;;5062299;28;20050;-70
2023/08/02 10:42:10;;;;;;;4.20;1.30;;;;;;;;;;5063858;28;20842;-70
2023/08/02 10:44:36;;;;;;;6.60;1.40;;;;;;;;;;5062747;28;20052;-70
2023/08/02 10:47:34;;;;;;;5.32;1.55;;;;;;;;;;5053638;28;20433;-70
2023/08/02 10:50:01;;;;;;;5.57;1.48;;;;;;;;;;4999921;28;20520;-71
2023/08/02 10:52:35;;;;;;;2.58;1.08;;;;;;;;;;5042843;28;20033;-71
2023/08/02 10:55:17;;;;;;;4.45;1.30;;;;;;;;;;5043177;28;20045;-70
2023/08/02 10:57:54;;;;;;;5.20;1.48;;;;;;;;;;5053803;28;20043;-71
2023/08/02 11:00:29;;;;;;;8.05;1.80;;;;;;;;;;5061054;28;20495;-70
2023/08/02 11:02:54;;;;;;;6.30;1.60;;;;;;;;;;5060905;28;20024;-71
2023/08/02 11:05:41;;;;;;;7.88;1.60;;;;;;;;;;5058031;28;20051;-71
2023/08/02 11:08:10;;;;;;;6.35;1.50;;;;;;;;;;5021614;28;20049;-71
2023/08/02 11:10:54;;;;;;;5.85;1.50;;;;;;;;;;5021517;28;20057;-70
2023/08/02 11:13:20;;;;;;;;;;;;;;;;;;5022160;28;20040;-71
2023/08/02 11:15:45;;;;;;;6.93;1.40;;;;;;;;;;5020250;28;20850;-70
2023/08/02 11:18:11;;;;;;;4.50;1.45;;;;;;;;;;5021522;28;20044;-69
2023/08/02 11:20:38;;;;;;;7.55;1.58;;;;;;;;;;5042076;28;20033;-70
2023/08/02 11:23:24;;;;;;;4.60;1.40;;;;;;;;;;5039994;28;20044;-70
2023/08/02 11:26:07;;;;;;;8.88;1.90;;;;;;;;;;5044762;28;20712;-70
2023/08/02 11:28:43;;;;;;;5.63;1.43;;;;;;;;;;5045673;28;20045;-70
2023/08/02 11:31:10;;;;;;;2.83;1.50;;;;;;;;;;5044780;28;20048;-70
2023/08/02 11:33:38;;;;;;;8.07;1.55;;;;;;;;;;5043905;28;20467;-70
2023/08/02 11:36:04;;;;;;;4.93;1.75;;;;;;;;;;5045336;28;20036;-70
2023/08/02 11:38:30;;;;;;;8.40;1.80;;;;;;;;;;5041549;28;20065;-70
2023/08/02 11:40:56;;;;;;;7.10;1.60;;;;;;;;;;5023845;28;20037;-70
2023/08/02 11:43:48;;;;;;;6.43;1.85;;;;;;;;;;5025321;28;20526;-70
2023/08/02 11:46:18;;;;;;;6.43;1.90;;;;;;;;;;5027582;28;20737;-70
2023/08/02 11:48:44;;;;;;;5.28;1.40;;;;;;;;;;5045046;28;20033;-70
2023/08/02 11:51:10;;;;;;;7.13;1.50;;;;;;;;;;5047825;28;20036;-70
2023/08/02 11:53:47;;;;;;;5.72;1.60;;;;;;;;;;5052878;28;20069;-70
2023/08/02 11:56:12;;;;;;;4.78;1.50;;;;;;;;;;5051832;28;20064;-70
2023/08/02 11:58:38;;;;;;;4.63;1.67;;;;;;;;;;5047422;28;20196;-70
2023/08/02 12:01:03;;;;;;;3.80;1.20;;;;;;;;;;5046173;28;20110;-70
2023/08/02 12:03:29;;;;;;;3.70;1.02;;;;;;;;;;5044880;28;20048;-70
2023/08/02 12:05:59;;;;;;;5.43;1.00;;;;;;;;;;5041022;28;20438;-69
2023/08/02 12:08:25;;;;;;;4.50;0.98;;;;;;;;;;5047385;28;20063;-70
2023/08/02 12:10:51;;;;;;;3.63;0.88;;;;;;;;;;5040774;28;20528;-71
2023/08/02 12:13:18;;;;;;;3.45;1.00;;;;;;;;;;5046726;28;20045;-70
2023/08/02 12:15:59;;;;;;;2.92;1.05;;;;;;;;;;5045746;28;20153;-70
2023/08/02 12:18:25;;;;;;;7.15;0.88;;;;;;;;;;5024076;28;20034;-70
2023/08/02 12:20:50;;;;;;;2.92;0.70;;;;;;;;;;5024983;28;20044;-70
2023/08/02 12:23:30;;;;;;;3.05;0.50;;;;;;;;;;5028206;28;20037;-70
2023/08/02 12:25:55;;;;;;;1.20;0.65;;;;;;;;;;5043109;28;20041;-70
2023/08/02 12:28:20;;;;;;;1.70;0.80;;;;;;;;;;5043885;28;20592;-71
2023/08/02 12:31:03;;;;;;;2.42;0.70;;;;;;;;;;5042025;28;20115;-70
2023/08/02 12:33:28;;;;;;;1.70;0.63;;;;;;;;;;5044629;28;20036;-70
2023/08/02 12:35:53;;;;;;;1.45;0.93;;;;;;;;;;5044792;28;20359;-70
2023/08/02 12:38:19;;;;;;;1.40;0.75;;;;;;;;;;5043813;28;20033;-71
2023/08/02 12:40:46;;;;;;;5.18;0.90;;;;;;;;;;5043194;28;20142;-71
2023/08/02 12:43:11;;;;;;;1.77;0.85;;;;;;;;;;5043877;28;20041;-69
2023/08/02 12:45:37;;;;;;;0.75;0.50;;;;;;;;;;5043567;28;20547;-70
2023/08/02 12:48:02;;;;;;;1.88;0.70;;;;;;;;;;5043405;28;20060;-70
2023/08/02 12:50:27;;;;;;;3.53;0.73;;;;;;;;;;5044276;28;20032;-70
2023/08/02 12:52:53;;;;;;;3.20;0.88;;;;;;;;;;5044343;28;20140;-70
2023/08/02 12:55:18;;;;;;;3.67;0.80;;;;;;;;;;5043219;28;20548;-70
2023/08/02 12:57:43;;;;;;;2.47;0.90;;;;;;;;;;5042896;28;20037;-70
2023/08/02 13:00:11;;;;;;;2.60;0.80;;;;;;;;;;5044962;28;20029;-71
2023/08/02 13:02:38;;;;;;;2.65;0.80;;;;;;;;;;5043877;28;20045;-71
2023/08/02 13:05:03;;;;;;;2.58;0.75;;;;;;;;;;5044453;28;20132;-70
2023/08/02 13:07:29;;;;;;;2.67;0.80;;;;;;;;;;5043936;28;20105;-70
2023/08/02 13:09:54;;;;;;;3.28;0.90;;;;;;;;;;5042666;28;20056;-70
2023/08/02 13:12:20;;;;;;;3.85;0.77;;;;;;;;;;5044155;28;20387;-70
2023/08/02 13:14:45;;;;;;;2.28;0.75;;;;;;;;;;5045937;28;20092;-70
2023/08/02 13:17:13;;;;;;;2.53;0.77;;;;;;;;;;5048624;28;20053;-70
2023/08/02 13:19:38;;;;;;;3.47;1.00;;;;;;;;;;5052733;28;20037;-70
2023/08/02 13:22:04;;;;;;;2.70;0.60;;;;;;;;;;5044866;28;20465;-70
2023/08/02 13:24:29;;;;;;;2.28;0.88;;;;;;;;;;5043675;28;20060;-70
2023/08/02 13:26:55;;;;;;;1.95;0.70;;;;;;;;;;5043205;28;20056;-70
2023/08/02 13:29:20;;;;;;;4.00;0.60;;;;;;;;;;5043188;28;20068;-70
2023/08/02 13:31:45;;;;;;;1.75;0.60;;;;;;;;;;5039225;28;20110;-70
2023/08/02 13:34:11;;;;;;;2.30;0.65;;;;;;;;;;5043440;28;20037;-71
2023/08/02 13:36:36;;;;;;;0.45;0.40;;;;;;;;;;5043825;28;20043;-71
2023/08/02 13:39:02;;;;;;;2.38;0.70;;;;;;;;;;5043400;28;20036;-71
2023/08/02 13:41:27;;;;;;;3.90;0.70;;;;;;;;;;5040793;28;20132;-70
2023/08/02 13:43:52;;;;;;;1.88;0.60;;;;;;;;;;5040904;28;20071;-71
2023/08/02 13:46:18;;;;;;;2.67;0.60;;;;;;;;;;5042679;28;20040;-70
2023/08/02 13:48:43;;;;;;;1.52;0.60;;;;;;;;;;5042037;28;20031;-70
2023/08/02 13:51:08;;;;;;;2.08;0.77;;;;;;;;;;5042297;28;20028;-71
2023/08/02 13:53:35;;;;;;;2.13;0.60;;;;;;;;;;5041788;28;20148;-70
2023/08/02 13:56:00;;;;;;;1.40;0.57;;;;;;;;;;5041556;28;20200;-70
2023/08/02 13:58:25;;;;;;;2.67;0.60;;;;;;;;;;5042390;28;20048;-71
2023/08/02 14:00:52;;;;;;;0.95;0.60;;;;;;;;;;5035714;28;20053;-70
2023/08/02 14:03:17;;;;;;;4.22;0.90;;;;;;;;;;5039243;28;20124;-70
2023/08/02 14:05:44;;;;;;;2.33;0.68;;;;;;;;;;5038460;28;20112;-71
2023/08/02 14:08:09;;;;;;;1.85;0.60;;;;;;;;;;5037932;28;20048;-70
2023/08/02 14:10:35;;;;;;;2.78;0.70;;;;;;;;;;5043854;28;20040;-71
2023/08/02 14:13:00;;;;;;;2.35;0.60;;;;;;;;;;5062169;28;20149;-71
2023/08/02 14:15:25;;;;;;;1.83;0.50;;;;;;;;;;5055114;28;20044;-70
2023/08/02 14:17:51;;;;;;;4.38;0.60;;;;;;;;;;5042223;28;20033;-71
2023/08/02 14:20:16;;;;;;;1.05;0.50;;;;;;;;;;5042566;28;20033;-71
2023/08/02 14:22:41;;;;;;;2.70;1.17;;;;;;;;;;5042645;28;20043;-71
2023/08/02 14:25:08;;;;;;;1.90;0.52;;;;;;;;;;5059011;28;20041;-71
2023/08/02 14:27:33;;;;;;;1.80;0.70;;;;;;;;;;5042759;28;20665;-70
2023/08/02 14:29:58;;;;;;;7.80;1.35;;;;;;;;;;5041453;28;20139;-71
2023/08/02 14:32:24;;;;;;;0.93;0.68;;;;;;;;;;5043328;28;20611;-70
2023/08/02 14:34:49;;;;;;;1.65;0.73;;;;;;;;;;5042763;28;20037;-71
2023/08/02 14:37:14;;;;;;;3.90;1.02;;;;;;;;;;5043890;28;20043;-70
2023/08/02 14:39:40;;;;;;;1.90;0.88;;;;;;;;;;5045478;28;20044;-70
2023/08/02 14:42:05;;;;;;;2.58;0.93;;;;;;;;;;5050194;28;20416;-70